Time;durP1;ratioP1;P1;durP2;ratioP2;P2;SDS_P1;SDS_P2;PMS_P1;PMS_P2;Temp;Humidity;BMP_temperature;BMP_pressure;BME280_temperature;BME280_humidity;BME280_pressure;Samples;Min_cycle;Max_cycle;Signal;HPM_P1;HPM_P2
2020/12/08 00:00:22;;;;;;;9.73;4.70;;;;;;;-7.43;70.59;101970.77;1740521;81;21208;-74
2020/12/08 00:02:50;;;;;;;13.45;5.42;;;;;;;-7.41;70.58;101966.75;1748184;81;21542;-75
2020/12/08 00:05:19;;;;;;;12.82;5.92;;;;;;;-7.41;70.62;101970.17;1693901;82;21205;-75
2020/12/08 00:07:47;;;;;;;13.03;6.17;;;;;;;-7.41;70.47;101964.98;1741323;81;21213;-74
2020/12/08 00:10:19;;;;;;;12.07;5.42;;;;;;;-7.42;70.49;101965.09;1734006;80;21380;-74
2020/12/08 00:12:50;;;;;;;11.83;5.60;;;;;;;-7.45;70.31;101960.94;1738627;81;21280;-74
2020/12/08 00:15:18;;;;;;;13.93;6.72;;;;;;;-7.48;70.32;101955.13;1743915;81;21213;-77
2020/12/08 00:17:46;;;;;;;11.83;6.12;;;;;;;-7.51;70.37;101962.66;1746560;81;21192;-75
2020/12/08 00:20:17;;;;;;;13.55;6.28;;;;;;;-7.51;70.37;101961.36;1683526;84;21640;-75
2020/12/08 00:22:45;;;;;;;13.40;5.35;;;;;;;-7.54;70.32;101965.45;1706777;82;21724;-74
2020/12/08 00:25:16;;;;;;;10.00;5.28;;;;;;;-7.57;70.29;101959.17;1739708;81;21169;-75
2020/12/08 00:27:43;;;;;;;10.85;5.87;;;;;;;-7.60;70.36;101960.23;1740158;80;21662;-74
2020/12/08 00:30:13;;;;;;;11.70;5.60;;;;;;;-7.64;70.53;101949.68;1749141;80;21545;-73
2020/12/08 00:32:41;;;;;;;11.28;5.35;;;;;;;-7.65;70.53;101941.55;1739636;81;21226;-73
2020/12/08 00:35:10;;;;;;;11.33;6.40;;;;;;;-7.68;70.61;101948.23;1735783;81;21380;-73
2020/12/08 00:37:44;;;;;;;15.03;5.92;;;;;;;-7.68;70.70;101939.63;1738849;81;21226;-74
2020/12/08 00:40:14;;;;;;;11.48;5.40;;;;;;;-7.67;70.81;101945.17;1745476;81;21058;-74
2020/12/08 00:42:41;;;;;;;16.45;6.28;;;;;;;-7.68;70.69;101940.45;1737775;81;21169;-74
2020/12/08 00:45:11;;;;;;;11.97;5.58;;;;;;;-7.68;70.72;101935.27;1746850;81;21161;-74
2020/12/08 00:47:39;;;;;;;12.65;5.92;;;;;;;-7.64;70.78;101938.48;1692134;83;21394;-74
2020/12/08 00:50:06;;;;;;;11.25;5.60;;;;;;;-7.64;70.82;101935.88;1683100;84;21309;-74
2020/12/08 00:52:36;;;;;;;11.53;5.72;;;;;;;-7.65;70.84;101937.65;1652450;85;21228;-74
2020/12/08 00:55:06;;;;;;;12.43;5.50;;;;;;;-7.69;70.71;101937.98;1743416;81;21499;-74
2020/12/08 00:57:34;;;;;;;10.88;6.12;;;;;;;-7.72;70.79;101929.93;1746778;81;21739;-74
2020/12/08 01:00:05;;;;;;;12.37;5.75;;;;;;;-7.71;70.91;101930.75;1741116;81;21817;-73
2020/12/08 01:02:32;;;;;;;10.15;5.30;;;;;;;-7.73;70.91;101932.17;1738531;81;21196;-74
2020/12/08 01:05:00;;;;;;;9.78;5.28;;;;;;;-7.72;71.03;101922.62;1745882;81;21193;-73
2020/12/08 01:07:27;;;;;;;10.98;5.42;;;;;;;-7.67;71.05;101914.86;1745841;80;21215;-73
2020/12/08 01:09:55;;;;;;;11.08;5.55;;;;;;;-7.66;71.07;101905.34;1691939;84;21466;-73
2020/12/08 01:12:23;;;;;;;13.65;6.90;;;;;;;-7.65;71.03;101914.77;1739662;80;21650;-73
2020/12/08 01:14:51;;;;;;;13.85;6.20;;;;;;;-7.66;71.03;101917.02;1736408;81;21190;-74
2020/12/08 01:17:19;;;;;;;12.50;5.47;;;;;;;-7.65;71.01;101925.16;1749972;81;21185;-74
2020/12/08 01:19:46;;;;;;;13.43;5.53;;;;;;;-7.65;70.92;101922.56;1746615;81;21212;-74
2020/12/08 01:22:15;;;;;;;11.43;5.70;;;;;;;-7.66;70.97;101926.09;1742502;80;21225;-74
2020/12/08 01:24:43;;;;;;;10.58;5.67;;;;;;;-7.68;70.84;101927.95;1736407;81;21221;-74
2020/12/08 01:27:11;;;;;;;13.00;6.33;;;;;;;-7.71;70.93;101926.86;1745137;81;21189;-75
2020/12/08 01:29:39;;;;;;;10.90;5.85;;;;;;;-7.70;70.97;101931.11;1742207;80;21201;-75
2020/12/08 01:32:07;;;;;;;11.15;5.10;;;;;;;-7.68;71.04;101930.08;1739418;81;21177;-73
2020/12/08 01:34:37;;;;;;;11.60;5.75;;;;;;;-7.65;71.09;101925.98;1742429;80;21213;-73
2020/12/08 01:37:06;;;;;;;10.05;5.40;;;;;;;-7.62;71.13;101932.25;1739297;81;22314;-74
2020/12/08 01:39:34;;;;;;;9.83;5.40;;;;;;;-7.61;71.08;101935.20;1737668;81;21100;-73
2020/12/08 01:42:02;;;;;;;9.95;4.90;;;;;;;-7.63;70.99;101931.91;1738286;80;21196;-74
2020/12/08 01:44:31;;;;;;;11.55;6.28;;;;;;;-7.63;71.01;101925.42;1739822;81;21188;-73
2020/12/08 01:47:00;;;;;;;11.28;5.40;;;;;;;-7.65;70.97;101929.05;1729196;82;21755;-73
2020/12/08 01:49:28;;;;;;;9.95;5.12;;;;;;;-7.67;71.08;101929.13;1682171;83;22360;-73
2020/12/08 01:51:56;;;;;;;11.53;5.65;;;;;;;-7.67;71.17;101924.41;1740112;81;21738;-73
2020/12/08 01:54:24;;;;;;;10.00;4.97;;;;;;;-7.68;71.16;101922.77;1739173;80;21223;-74
2020/12/08 01:56:52;;;;;;;10.60;5.05;;;;;;;-7.65;71.25;101924.68;1723106;81;21185;-74
2020/12/08 01:59:20;;;;;;;11.08;6.03;;;;;;;-7.62;71.33;101923.17;1730347;81;21166;-74
2020/12/08 02:01:49;;;;;;;11.25;5.62;;;;;;;-7.61;71.31;101924.83;1740977;80;22133;-74
2020/12/08 02:04:17;;;;;;;14.03;5.42;;;;;;;-7.65;71.39;101920.79;1749369;81;21206;-74
2020/12/08 02:06:46;;;;;;;12.90;5.37;;;;;;;-7.64;71.37;101922.44;1741535;81;21185;-75
2020/12/08 02:09:14;;;;;;;10.63;5.92;;;;;;;-7.60;71.48;101930.84;1739620;81;21173;-74
2020/12/08 02:11:42;;;;;;;15.63;6.90;;;;;;;-7.57;71.47;101925.44;1746794;80;21204;-74
2020/12/08 02:14:11;;;;;;;14.03;6.62;;;;;;;-7.55;71.48;101930.90;1692829;84;22169;-74
2020/12/08 02:16:39;;;;;;;11.12;5.47;;;;;;;-7.57;71.56;101930.19;1668734;84;21114;-75
2020/12/08 02:19:08;;;;;;;12.73;6.87;;;;;;;-7.52;71.59;101931.16;1737346;80;21134;-75
2020/12/08 02:21:38;;;;;;;10.68;6.03;;;;;;;-7.53;71.51;101928.66;1744601;81;21193;-73
2020/12/08 02:24:09;;;;;;;12.28;5.95;;;;;;;-7.55;71.62;101930.07;1754381;81;21118;-74
2020/12/08 02:26:37;;;;;;;10.80;5.47;;;;;;;-7.56;71.59;101930.55;1738202;81;21834;-74
2020/12/08 02:29:07;;;;;;;13.43;5.87;;;;;;;-7.53;71.68;101935.14;1731340;82;21148;-74
2020/12/08 02:31:36;;;;;;;12.68;6.40;;;;;;;-7.52;71.80;101920.78;1750833;81;21166;-74
2020/12/08 02:34:07;;;;;;;12.28;6.45;;;;;;;-7.49;71.73;101924.94;1685113;84;21206;-74
2020/12/08 02:36:35;;;;;;;11.95;7.10;;;;;;;-7.46;71.76;101922.13;1743787;81;21147;-75
2020/12/08 02:39:04;;;;;;;10.65;5.53;;;;;;;-7.42;71.83;101923.10;1750511;81;22471;-74
2020/12/08 02:41:33;;;;;;;12.70;5.85;;;;;;;-7.39;71.80;101921.59;1744231;81;21125;-74
2020/12/08 02:44:01;;;;;;;12.30;6.75;;;;;;;-7.41;71.64;101914.84;1744762;79;21158;-74
2020/12/08 02:46:29;;;;;;;12.65;6.50;;;;;;;-7.43;71.58;101922.75;1753562;79;21047;-74
2020/12/08 02:48:57;;;;;;;13.43;6.83;;;;;;;-7.47;71.55;101917.38;1728641;81;21066;-74
2020/12/08 02:51:27;;;;;;;10.48;5.45;;;;;;;-7.45;71.52;101921.19;1742097;80;21732;-74
2020/12/08 02:53:56;;;;;;;12.25;5.62;;;;;;;-7.45;71.38;101919.41;1742817;81;21604;-73
2020/12/08 02:56:25;;;;;;;13.15;6.42;;;;;;;-7.46;71.32;101919.53;1739332;81;21150;-74
2020/12/08 02:58:54;;;;;;;12.70;5.55;;;;;;;-7.51;71.42;101918.53;1742317;81;21193;-74
2020/12/08 03:01:22;;;;;;;11.48;5.58;;;;;;;-7.50;71.58;101911.58;1744499;80;21197;-74
2020/12/08 03:03:52;;;;;;;12.45;5.53;;;;;;;-7.48;71.62;101907.95;1739942;81;21372;-74
2020/12/08 03:06:20;;;;;;;14.43;7.08;;;;;;;-7.48;71.69;101914.44;1744176;81;21171;-76
2020/12/08 03:08:48;;;;;;;15.75;7.20;;;;;;;-7.49;71.82;101914.56;1740151;81;21102;-75
2020/12/08 03:11:16;;;;;;;13.65;6.45;;;;;;;-7.53;71.86;101911.34;1742408;80;21256;-74
2020/12/08 03:13:44;;;;;;;15.05;6.85;;;;;;;-7.54;71.94;101912.26;1745382;81;21517;-74
2020/12/08 03:16:18;;;;;;;13.40;6.35;;;;;;;-7.57;72.09;101910.73;1722916;80;21386;-75
2020/12/08 03:18:48;;;;;;;12.25;6.50;;;;;;;-7.56;72.20;101912.85;1739729;80;21129;-74
2020/12/08 03:21:16;;;;;;;13.48;6.95;;;;;;;-7.57;72.23;101915.06;1740233;80;21162;-75
2020/12/08 03:23:44;;;;;;;16.15;7.55;;;;;;;-7.59;72.36;101907.41;1724380;81;21197;-75
2020/12/08 03:26:20;;;;;;;12.82;6.50;;;;;;;-7.62;72.45;101909.38;1724744;81;21270;-75
2020/12/08 03:28:55;;;;;;;13.57;6.23;;;;;;;-7.57;72.53;101905.98;1841512;76;22468;-76
2020/12/08 03:31:23;;;;;;;13.03;6.28;;;;;;;-7.58;72.63;101901.27;1803566;78;21137;-75
2020/12/08 03:33:55;;;;;;;15.75;7.08;;;;;;;-7.56;72.68;101901.17;1791436;78;21191;-75
2020/12/08 03:36:24;;;;;;;13.08;6.90;;;;;;;-7.57;72.71;101901.65;1811850;77;21528;-75
2020/12/08 03:38:51;;;;;;;15.80;6.55;;;;;;;-7.55;72.71;101904.95;1806014;78;21136;-75
2020/12/08 03:41:22;;;;;;;15.03;6.97;;;;;;;-7.56;72.84;101892.92;1806326;77;21143;-76
2020/12/08 03:43:53;;;;;;;12.53;6.87;;;;;;;-7.61;72.76;101888.50;1783474;77;21127;-75
2020/12/08 03:46:23;;;;;;;15.25;7.25;;;;;;;-7.61;72.90;101891.57;1807420;77;21143;-75
2020/12/08 03:48:52;;;;;;;14.05;7.35;;;;;;;-7.60;72.83;101894.52;1778657;77;21119;-76
2020/12/08 03:51:21;;;;;;;11.50;6.00;;;;;;;-7.65;72.91;101890.95;1808346;77;21107;-75
2020/12/08 03:53:49;;;;;;;16.12;6.90;;;;;;;-7.65;73.02;101894.84;1812534;77;21603;-75
2020/12/08 03:56:19;;;;;;;13.70;6.95;;;;;;;-7.65;73.15;101894.84;1804082;78;21131;-75
2020/12/08 03:58:48;;;;;;;11.57;6.12;;;;;;;-7.64;73.17;101893.90;1812257;77;21255;-75
2020/12/08 04:01:21;;;;;;;12.80;6.55;;;;;;;-7.63;73.25;101890.39;1805134;77;21083;-75
2020/12/08 04:03:50;;;;;;;12.33;6.05;;;;;;;-7.59;73.33;101894.90;1799758;77;21179;-75
2020/12/08 04:06:18;;;;;;;14.05;7.17;;;;;;;-7.58;73.35;101888.77;1809715;77;21657;-75
2020/12/08 04:08:47;;;;;;;12.53;5.85;;;;;;;-7.57;73.31;101890.41;1782078;77;21077;-76
2020/12/08 04:11:16;;;;;;;14.75;6.78;;;;;;;-7.57;73.39;101889.97;1794410;77;21551;-74
2020/12/08 04:13:44;;;;;;;15.35;7.28;;;;;;;-7.62;73.35;101889.45;1776186;77;21112;-74
2020/12/08 04:16:13;;;;;;;16.23;7.15;;;;;;;-7.62;73.50;101893.81;1798933;77;21464;-74
2020/12/08 04:18:42;;;;;;;12.28;6.45;;;;;;;-7.66;73.55;101885.41;1775078;77;21122;-74
2020/12/08 04:21:10;;;;;;;14.47;7.65;;;;;;;-7.71;73.69;101881.00;1820620;77;21196;-74
2020/12/08 04:23:38;;;;;;;15.43;7.50;;;;;;;-7.71;73.83;101882.30;1812064;77;21782;-74
2020/12/08 04:26:10;;;;;;;14.75;8.10;;;;;;;-7.70;73.98;101880.08;1811704;78;21737;-74
2020/12/08 04:28:39;;;;;;;11.70;6.17;;;;;;;-7.68;74.03;101883.38;1796731;79;21115;-73
2020/12/08 04:31:15;;;;;;;13.22;7.22;;;;;;;-7.64;74.08;101878.80;1787919;79;21602;-74
2020/12/08 04:33:43;;;;;;;13.60;7.50;;;;;;;-7.62;74.04;101882.14;1797352;79;21155;-74
2020/12/08 04:36:16;;;;;;;15.90;8.15;;;;;;;-7.63;74.12;101883.08;1805714;79;21807;-74
2020/12/08 04:38:44;;;;;;;15.70;7.72;;;;;;;-7.67;74.08;101880.31;1795009;78;21658;-75
2020/12/08 04:41:22;;;;;;;14.00;7.08;;;;;;;-7.68;74.13;101882.55;1804013;79;21523;-74
2020/12/08 04:43:52;;;;;;;14.93;6.92;;;;;;;-7.71;74.05;101881.47;1792127;79;21626;-74
2020/12/08 04:46:21;;;;;;;12.30;6.10;;;;;;;-7.72;74.18;101885.01;1818063;78;21618;-73
2020/12/08 04:48:49;;;;;;;13.62;6.45;;;;;;;-7.74;74.13;101874.72;1791122;79;22294;-75
2020/12/08 04:51:17;;;;;;;12.60;5.90;;;;;;;-7.76;74.19;101876.61;1804378;79;21197;-74
2020/12/08 04:53:48;;;;;;;15.75;7.50;;;;;;;-7.81;74.17;101878.20;1794368;79;21056;-74
2020/12/08 04:56:16;;;;;;;12.90;6.62;;;;;;;-7.82;74.31;101875.25;1803967;79;21178;-73
2020/12/08 04:58:43;;;;;;;13.88;6.55;;;;;;;-7.83;74.39;101878.79;1808319;78;21024;-75
2020/12/08 05:01:24;;;;;;;14.40;7.00;;;;;;;-7.82;74.44;101883.03;1788977;79;21207;-75
2020/12/08 05:04:01;;;;;;;14.90;6.70;;;;;;;-7.84;74.48;101890.55;1796474;77;21171;-75
2020/12/08 05:06:29;;;;;;;13.13;6.33;;;;;;;-7.87;74.52;101885.09;1819272;77;21631;-75
2020/12/08 05:09:06;;;;;;;13.62;6.90;;;;;;;-7.86;74.62;101888.55;1804681;77;21590;-75
2020/12/08 05:11:35;;;;;;;10.88;6.12;;;;;;;-7.86;74.57;101880.30;1809277;77;21307;-74
2020/12/08 05:14:05;;;;;;;11.65;6.58;;;;;;;-7.86;74.49;101882.89;1802562;77;22289;-75
2020/12/08 05:16:32;;;;;;;12.65;6.20;;;;;;;-7.86;74.36;101885.48;1813133;77;21566;-73
2020/12/08 05:19:08;;;;;;;12.50;6.47;;;;;;;-7.87;74.48;101888.98;1810449;77;21563;-73
2020/12/08 05:21:48;;;;;;;13.93;6.83;;;;;;;-7.87;74.42;101888.16;1808911;77;21035;-75
2020/12/08 05:24:27;;;;;;;14.53;7.78;;;;;;;-7.89;74.40;101879.20;1805952;77;21634;-75
2020/12/08 05:27:03;;;;;;;11.12;6.25;;;;;;;-7.91;74.36;101883.66;1803116;77;21336;-75
2020/12/08 05:29:32;;;;;;;12.58;5.55;;;;;;;-7.92;74.50;101885.89;1814229;77;21116;-76
2020/12/08 05:32:29;;;;;;;13.62;7.42;;;;;;;-7.95;74.65;101873.13;1816366;77;21578;-74
2020/12/08 05:34:57;;;;;;;13.65;7.05;;;;;;;-7.94;74.61;101875.26;1808957;77;21151;-75
2020/12/08 05:37:25;;;;;;;12.37;6.55;;;;;;;-7.92;74.79;101868.22;1809310;78;21138;-74
2020/12/08 05:39:52;;;;;;;13.50;7.03;;;;;;;-7.92;74.82;101874.70;1823382;77;21190;-75
2020/12/08 05:42:20;;;;;;;12.15;6.10;;;;;;;-7.94;74.77;101879.97;1808488;77;21186;-76
2020/12/08 05:44:51;;;;;;;11.68;5.80;;;;;;;-7.95;74.83;101888.69;1802804;77;21617;-75
2020/12/08 05:47:20;;;;;;;14.68;6.85;;;;;;;-7.96;74.94;101881.86;1814541;77;21200;-76
2020/12/08 05:50:01;;;;;;;11.15;6.37;;;;;;;-7.95;74.99;101878.80;1809725;77;21185;-75
2020/12/08 05:52:31;;;;;;;12.75;6.72;;;;;;;-7.94;75.16;101874.78;1814057;77;21356;-75
2020/12/08 05:55:12;;;;;;;11.90;6.05;;;;;;;-7.92;75.23;101870.34;1799052;78;21140;-74
2020/12/08 05:57:40;;;;;;;16.05;7.37;;;;;;;-7.89;75.28;101874.02;1794719;77;21101;-75
2020/12/08 06:00:23;;;;;;;13.83;6.58;;;;;;;-7.88;75.30;101882.16;1798928;78;21194;-75
2020/12/08 06:02:53;;;;;;;12.40;6.92;;;;;;;-7.86;75.37;101884.19;1815410;77;21135;-76
2020/12/08 06:05:31;;;;;;;12.20;6.00;;;;;;;-7.84;75.38;101883.59;1796955;78;21656;-74
2020/12/08 06:08:00;;;;;;;13.72;7.10;;;;;;;-7.81;75.55;101888.58;1802601;79;21198;-74
2020/12/08 06:10:27;;;;;;;13.48;6.87;;;;;;;-7.81;75.53;101885.98;1797692;77;21079;-74
2020/12/08 06:13:01;;;;;;;14.60;6.58;;;;;;;-7.82;75.61;101888.22;1811424;77;21488;-75
2020/12/08 06:15:39;;;;;;;14.40;7.40;;;;;;;-7.83;75.77;101882.68;1796820;78;21202;-74
2020/12/08 06:18:11;;;;;;;12.82;6.45;;;;;;;-7.85;75.83;101888.43;1806136;77;21364;-76
2020/12/08 06:20:38;;;;;;;;;;;;;;;-7.82;75.99;101884.80;1820766;77;21196;-75
2020/12/08 06:23:06;;;;;;;12.25;5.83;;;;;;;-7.81;76.01;101888.58;1813575;77;20208;-75
2020/12/08 06:25:34;;;;;;;14.38;7.70;;;;;;;-7.80;76.01;101878.59;1800300;77;21504;-74
2020/12/08 06:28:03;;;;;;;14.05;7.42;;;;;;;-7.79;76.10;101881.53;1806577;77;21032;-75
2020/12/08 06:30:31;;;;;;;12.00;6.30;;;;;;;-7.75;76.17;101882.62;1812344;77;21885;-73
2020/12/08 06:33:01;;;;;;;14.03;7.15;;;;;;;-7.75;76.20;101883.45;1816307;77;21129;-74
2020/12/08 06:35:31;;;;;;;12.50;6.30;;;;;;;-7.69;76.31;101879.61;1813495;77;21129;-75
2020/12/08 06:38:01;;;;;;;;;;;;;;;-7.68;76.20;101882.08;1803545;78;21144;-74
2020/12/08 06:40:28;;;;;;;14.63;7.40;;;;;;;-7.70;76.09;101885.71;1804126;77;20517;-74
2020/12/08 06:42:56;;;;;;;16.52;7.20;;;;;;;-7.71;76.21;101891.84;1817567;77;22663;-73
2020/12/08 06:45:24;;;;;;;13.25;6.80;;;;;;;-7.70;76.35;101883.97;1802495;77;21134;-75
2020/12/08 06:47:52;;;;;;;15.93;7.05;;;;;;;-7.65;76.38;101891.42;1806393;77;21259;-75
2020/12/08 06:50:29;;;;;;;13.25;6.53;;;;;;;-7.63;76.25;101890.39;1815537;78;21101;-75
2020/12/08 06:53:00;;;;;;;12.80;6.58;;;;;;;-7.64;76.12;101891.78;1813668;79;21183;-75
2020/12/08 06:55:29;;;;;;;12.47;6.60;;;;;;;-7.64;76.11;101897.79;1800619;79;21793;-75
2020/12/08 06:58:05;;;;;;;14.33;6.97;;;;;;;-7.64;76.19;101896.97;1782341;79;21190;-75
2020/12/08 07:00:33;;;;;;;12.80;6.85;;;;;;;-7.64;76.22;101899.09;1799403;79;21246;-75
2020/12/08 07:03:02;;;;;;;18.48;8.30;;;;;;;-7.63;76.18;101899.95;1795652;79;21653;-75
2020/12/08 07:05:31;;;;;;;13.60;7.08;;;;;;;-7.63;76.19;101901.24;1794886;79;21547;-75
2020/12/08 07:08:03;;;;;;;16.52;7.53;;;;;;;-7.64;76.07;101895.20;1805210;79;21379;-76
2020/12/08 07:10:37;;;;;;;16.17;7.65;;;;;;;-7.60;76.42;101895.81;1803771;79;21582;-75
2020/12/08 07:13:14;;;;;;;14.03;7.40;;;;;;;-7.53;76.41;101898.81;1787876;79;21107;-74
2020/12/08 07:15:43;;;;;;;13.93;7.05;;;;;;;-7.50;76.33;101898.16;1799773;79;21123;-74
2020/12/08 07:18:12;;;;;;;13.45;6.72;;;;;;;-7.45;76.46;101890.87;1793952;77;21115;-74
2020/12/08 07:20:43;;;;;;;13.03;6.00;;;;;;;-7.41;76.09;101895.38;1793488;79;21352;-75
2020/12/08 07:23:11;;;;;;;13.88;7.65;;;;;;;-7.41;75.91;101888.41;1786530;79;21076;-73
2020/12/08 07:25:38;;;;;;;16.07;7.80;;;;;;;-7.43;75.77;101886.41;1798473;79;21178;-75
2020/12/08 07:28:08;;;;;;;13.20;7.08;;;;;;;-7.43;75.88;101892.08;1812765;77;21608;-75
2020/12/08 07:30:36;;;;;;;11.55;6.20;;;;;;;-7.43;75.97;101890.78;1796086;77;21159;-75
2020/12/08 07:33:12;;;;;;;14.15;6.65;;;;;;;-7.43;76.14;101895.50;1814085;77;21362;-78
2020/12/08 07:35:44;;;;;;;14.35;6.85;;;;;;;-7.40;76.28;101890.09;1803181;77;21123;-75
2020/12/08 07:38:14;;;;;;;13.75;7.20;;;;;;;-7.36;76.53;101891.53;1800193;77;21124;-76
2020/12/08 07:40:42;;;;;;;13.20;7.03;;;;;;;-7.27;76.62;101901.75;1804704;77;21056;-75
2020/12/08 07:43:10;;;;;;;13.85;7.30;;;;;;;-7.21;76.83;101899.17;1806300;78;21089;-75
2020/12/08 07:45:44;;;;;;;17.20;8.00;;;;;;;-7.14;76.86;101896.49;1798438;79;21203;-75
2020/12/08 07:48:17;;;;;;;17.98;8.25;;;;;;;-7.07;76.79;101902.94;1809370;79;21124;-75
2020/12/08 07:50:45;;;;;;;13.90;6.85;;;;;;;-7.05;77.10;101894.55;1812913;77;21171;-77
2020/12/08 07:53:15;;;;;;;12.50;6.20;;;;;;;-6.91;77.35;101895.71;1800919;79;21083;-74
2020/12/08 07:55:45;;;;;;;15.63;8.23;;;;;;;-6.80;77.30;101892.33;1811081;77;21091;-76
2020/12/08 07:58:12;;;;;;;14.58;7.05;;;;;;;-6.77;76.77;101891.28;1795756;77;21352;-76
2020/12/08 08:00:40;;;;;;;16.10;7.87;;;;;;;-6.73;76.65;101892.72;1802201;79;21127;-75
2020/12/08 08:03:08;;;;;;;15.08;7.35;;;;;;;-6.68;76.45;101886.70;1814811;79;21162;-76
2020/12/08 08:05:36;;;;;;;13.22;7.03;;;;;;;-6.67;76.12;101889.20;1805455;78;21599;-77
2020/12/08 08:08:04;;;;;;;14.90;7.35;;;;;;;-6.66;75.87;101890.02;1800532;79;21032;-76
2020/12/08 08:10:32;;;;;;;14.53;7.05;;;;;;;-6.72;75.51;101891.29;1807750;79;21318;-77
2020/12/08 08:13:01;;;;;;;13.18;7.08;;;;;;;-6.72;75.50;101886.09;1797452;79;21170;-78
2020/12/08 08:15:29;;;;;;;15.98;7.22;;;;;;;-6.69;75.43;101883.27;1795731;79;21187;-75
2020/12/08 08:17:58;;;;;;;14.78;7.20;;;;;;;-6.65;75.29;101881.28;1799068;79;21598;-75
2020/12/08 08:20:27;;;;;;;15.53;6.25;;;;;;;-6.64;75.56;101885.08;1804895;79;21170;-75
2020/12/08 08:22:56;;;;;;;14.47;7.00;;;;;;;-6.57;75.54;101876.84;1794527;79;21352;-74
2020/12/08 08:25:26;;;;;;;14.35;6.92;;;;;;;-6.48;75.40;101878.73;1803074;77;21179;-74
2020/12/08 08:28:01;;;;;;;15.67;8.43;;;;;;;-6.35;75.11;101869.56;1818976;77;27956;-74
2020/12/08 08:30:29;;;;;;;12.33;7.03;;;;;;;-6.35;74.63;101874.28;1821195;77;21211;-75
2020/12/08 08:32:57;;;;;;;12.95;6.22;;;;;;;-6.41;74.28;101869.09;1844758;77;21224;-74
2020/12/08 08:35:27;;;;;;;13.50;6.65;;;;;;;-6.45;74.12;101874.61;1839994;77;21221;-75
2020/12/08 08:37:55;;;;;;;11.10;5.70;;;;;;;-6.47;74.01;101863.52;1842237;77;21196;-74
2020/12/08 08:40:24;;;;;;;11.45;6.00;;;;;;;-6.44;73.96;101864.59;1804872;78;21615;-74
2020/12/08 08:42:55;;;;;;;13.50;7.08;;;;;;;-6.41;73.78;101865.19;1828069;78;21520;-74
2020/12/08 08:45:23;;;;;;;12.40;5.60;;;;;;;-6.34;73.63;101868.64;1826560;78;22778;-74
2020/12/08 08:47:51;;;;;;;12.07;5.12;;;;;;;-6.31;72.97;101864.03;1819975;77;21144;-75
2020/12/08 08:50:22;;;;;;;14.28;6.17;;;;;;;-6.33;72.91;101856.81;1816032;78;21167;-73
2020/12/08 08:52:50;;;;;;;11.95;6.10;;;;;;;-6.36;72.73;101857.03;1818114;78;21128;-74
2020/12/08 08:55:18;;;;;;;11.00;6.25;;;;;;;-6.33;72.71;101851.61;1810023;78;21155;-74
2020/12/08 08:57:46;;;;;;;11.85;5.30;;;;;;;-6.30;72.63;101850.08;1825953;77;21542;-74
2020/12/08 09:00:16;;;;;;;11.50;5.55;;;;;;;-6.24;72.43;101852.70;1825706;77;21167;-74
2020/12/08 09:02:52;;;;;;;11.07;5.17;;;;;;;-6.22;71.99;101839.95;1824611;76;22723;-73
2020/12/08 09:05:20;;;;;;;12.13;5.55;;;;;;;-6.27;72.24;101845.12;1784680;78;21136;-74
2020/12/08 09:07:48;;;;;;;12.98;6.40;;;;;;;-6.27;72.33;101845.12;1777341;78;21336;-75
2020/12/08 09:10:19;;;;;;;12.30;5.80;;;;;;;-6.24;72.23;101856.60;1786358;80;21176;-74
2020/12/08 09:12:46;;;;;;;10.93;5.28;;;;;;;-6.22;72.09;101856.00;1785248;79;21202;-75
2020/12/08 09:15:15;;;;;;;12.95;5.83;;;;;;;-6.22;72.07;101852.09;1780667;80;21176;-73
2020/12/08 09:17:43;;;;;;;11.97;6.47;;;;;;;-6.19;72.16;101842.77;1781237;80;21164;-75
2020/12/08 09:20:11;;;;;;;11.70;5.62;;;;;;;-6.15;72.17;101845.52;1777001;79;21387;-75
2020/12/08 09:22:40;;;;;;;14.38;7.15;;;;;;;-6.13;72.49;101842.30;1781558;78;21659;-74
2020/12/08 09:25:09;;;;;;;14.65;6.70;;;;;;;-6.10;72.29;101849.05;1783457;80;21805;-74
2020/12/08 09:27:38;;;;;;;12.78;6.85;;;;;;;-6.08;72.28;101845.88;1781682;78;21670;-74
2020/12/08 09:30:06;;;;;;;15.63;6.97;;;;;;;-6.09;72.28;101848.09;1780235;80;21188;-74
2020/12/08 09:32:34;;;;;;;12.93;6.33;;;;;;;-6.11;72.33;101846.11;1776969;79;21429;-75
2020/12/08 09:35:02;;;;;;;12.37;6.40;;;;;;;-6.11;72.45;101837.00;1772151;80;21168;-73
2020/12/08 09:37:30;;;;;;;13.58;6.60;;;;;;;-6.07;72.77;101844.92;1780455;78;21232;-75
2020/12/08 09:39:58;;;;;;;13.13;6.30;;;;;;;-6.05;72.54;101842.56;1764200;80;21179;-75
2020/12/08 09:42:28;;;;;;;17.00;6.53;;;;;;;-6.07;72.83;101848.34;1776822;79;21235;-73
2020/12/08 09:44:57;;;;;;;16.87;7.58;;;;;;;-6.07;72.97;101841.84;1754416;79;21397;-75
2020/12/08 09:47:25;;;;;;;18.23;7.78;;;;;;;-6.06;72.77;101849.98;1780724;78;21204;-74
2020/12/08 09:49:53;;;;;;;16.82;7.87;;;;;;;-5.97;72.95;101850.59;1785542;80;21161;-75
2020/12/08 09:52:21;;;;;;;13.85;6.08;;;;;;;-5.85;72.96;101851.41;1782474;79;21146;-73
2020/12/08 09:54:49;;;;;;;12.10;6.22;;;;;;;-5.76;72.77;101852.01;1784111;79;21155;-74
2020/12/08 09:57:18;;;;;;;17.73;7.28;;;;;;;-5.74;72.70;101849.27;1785196;78;21759;-73
2020/12/08 09:59:49;;;;;;;13.05;6.60;;;;;;;-5.74;72.61;101842.77;1786068;80;21415;-74
2020/12/08 10:02:19;;;;;;;12.88;6.28;;;;;;;-5.78;72.74;101847.38;1786065;79;21191;-76
2020/12/08 10:04:48;;;;;;;16.12;7.03;;;;;;;-5.75;72.87;101848.93;1782255;79;21215;-73
2020/12/08 10:09:55;;;;;;;13.30;7.20;;;;;;;-5.56;73.18;101840.50;1817306;77;22664;-74
2020/12/08 10:12:23;;;;;;;16.85;8.00;;;;;;;-5.54;73.26;101844.64;1781096;79;21139;-73
2020/12/08 10:14:51;;;;;;;17.30;8.53;;;;;;;-5.55;72.87;101841.69;1775810;78;21347;-75
2020/12/08 10:17:19;;;;;;;19.85;7.67;;;;;;;-5.56;72.74;101840.05;1795897;79;21143;-75
2020/12/08 10:19:47;;;;;;;14.40;7.00;;;;;;;-5.53;72.43;101837.17;1794143;79;21641;-76
2020/12/08 10:22:15;;;;;;;17.20;7.87;;;;;;;-5.58;72.27;101837.20;1803306;79;21147;-74
2020/12/08 10:24:43;;;;;;;15.45;7.67;;;;;;;-5.68;71.92;101827.98;1786602;79;21560;-75
2020/12/08 10:27:11;;;;;;;15.70;7.45;;;;;;;-5.75;71.85;101832.02;1796593;79;21651;-75
2020/12/08 10:29:39;;;;;;;15.63;7.03;;;;;;;-5.79;72.15;101830.13;1797800;79;21162;-74
2020/12/08 10:32:07;;;;;;;17.00;7.45;;;;;;;-5.77;72.32;101822.19;1816710;79;21528;-74
2020/12/08 10:34:36;;;;;;;16.07;7.58;;;;;;;-5.74;72.54;101827.16;1803514;78;21156;-74
2020/12/08 10:37:04;;;;;;;17.20;7.33;;;;;;;-5.69;72.61;101832.84;1797154;78;21080;-74
2020/12/08 10:39:32;;;;;;;12.65;6.03;;;;;;;-5.70;72.49;101822.06;1791634;79;21487;-74
2020/12/08 10:42:00;;;;;;;16.05;6.72;;;;;;;-5.69;72.62;101827.16;1794972;79;21174;-75
2020/12/08 10:44:28;;;;;;;13.22;6.37;;;;;;;-5.66;72.79;101823.47;1787614;79;21602;-74
2020/12/08 10:46:56;;;;;;;16.93;7.87;;;;;;;-5.60;72.85;101826.89;1801291;77;21114;-73
2020/12/08 10:49:24;;;;;;;14.68;7.72;;;;;;;-5.58;72.80;101819.80;1791912;79;21126;-74
2020/12/08 10:51:52;;;;;;;13.40;7.20;;;;;;;-5.59;72.85;101819.46;1792999;79;21378;-74
2020/12/08 10:54:20;;;;;;;13.00;6.60;;;;;;;-5.62;73.17;101813.67;1786350;79;21147;-75
2020/12/08 10:56:54;;;;;;;14.40;7.70;;;;;;;-5.62;73.52;101812.38;1792758;79;21306;-74
2020/12/08 10:59:22;;;;;;;15.43;7.15;;;;;;;-5.60;73.72;101816.48;1805616;79;21111;-75
2020/12/08 11:01:56;;;;;;;15.00;7.15;;;;;;;-5.53;73.72;101818.12;1813001;79;21104;-74
2020/12/08 11:04:24;;;;;;;16.15;7.92;;;;;;;-5.49;73.57;101818.27;1813857;77;21404;-74
2020/12/08 11:06:52;;;;;;;18.62;9.08;;;;;;;-5.51;73.06;101820.97;1807077;78;21567;-74
2020/12/08 11:09:21;;;;;;;17.02;8.50;;;;;;;-5.53;73.15;101825.46;1783957;79;21099;-73
2020/12/08 11:11:49;;;;;;;15.80;7.75;;;;;;;-5.55;72.50;101823.47;1805238;79;21112;-74
2020/12/08 11:14:16;;;;;;;16.75;7.78;;;;;;;-5.59;72.60;101818.16;1820306;77;21055;-74
2020/12/08 11:16:44;;;;;;;16.17;7.22;;;;;;;-5.58;72.29;101825.48;1801391;77;21253;-74
2020/12/08 11:19:14;;;;;;;19.73;8.05;;;;;;;-5.63;72.11;101818.02;1803663;77;21506;-73
2020/12/08 11:21:43;;;;;;;17.40;7.83;;;;;;;-5.64;71.98;101819.45;1808130;77;21162;-74
2020/12/08 11:24:13;;;;;;;17.20;8.58;;;;;;;-5.65;71.71;101809.53;1781318;79;21075;-74
2020/12/08 11:26:44;;;;;;;15.35;7.42;;;;;;;-5.72;71.79;101814.38;1792943;77;21175;-75
2020/12/08 11:29:10;;;;;;;17.80;8.53;;;;;;;-5.71;72.09;101805.63;1794936;79;21125;-75